Time;durP1;ratioP1;P1;durP2;ratioP2;P2;SDS_P1;SDS_P2;PMS_P1;PMS_P2;Temp;Humidity;BMP_temperature;BMP_pressure;BME280_temperature;BME280_humidity;BME280_pressure;Samples;Min_cycle;Max_cycle;Signal;HPM_P1;HPM_P2
2023/12/10 00:00:04;;;;;;;0.55;0.30;;;18.60;52.90;;;;;;5148165;27;45327;-61
2023/12/10 00:02:31;;;;;;;0.30;0.30;;;18.50;52.90;;;;;;5163985;27;45316;-62
2023/12/10 00:04:58;;;;;;;1.35;0.55;;;18.50;53.00;;;;;;5167202;27;48888;-62
2023/12/10 00:07:25;;;;;;;1.63;0.45;;;18.40;52.90;;;;;;5168960;27;45332;-62
2023/12/10 00:09:53;;;;;;;0.32;0.30;;;18.40;52.90;;;;;;5169145;27;45657;-62
2023/12/10 00:12:20;;;;;;;2.17;0.77;;;18.40;52.90;;;;;;5157726;27;45448;-61
2023/12/10 00:14:52;;;;;;;0.98;0.20;;;18.40;52.90;;;;;;5148897;27;45729;-61
2023/12/10 00:17:19;;;;;;;0.55;0.20;;;18.40;52.90;;;;;;5147896;27;45437;-62
2023/12/10 00:19:46;;;;;;;4.10;0.38;;;18.40;53.00;;;;;;5147998;27;45441;-61
2023/12/10 00:22:13;;;;;;;1.05;0.38;;;18.40;53.00;;;;;;5155391;27;45319;-62
2023/12/10 00:24:42;;;;;;;0.45;0.40;;;18.30;53.00;;;;;;5153427;27;46803;-63
2023/12/10 00:27:10;;;;;;;0.30;0.30;;;18.30;53.00;;;;;;5147491;27;45385;-62
2023/12/10 00:29:37;;;;;;;0.55;0.40;;;18.30;53.10;;;;;;5147769;27;45342;-61
2023/12/10 00:32:04;;;;;;;0.50;0.40;;;18.30;53.10;;;;;;5148053;27;45293;-62
2023/12/10 00:34:31;;;;;;;1.33;0.57;;;18.20;53.10;;;;;;5159298;27;47320;-62
2023/12/10 00:36:58;;;;;;;1.20;0.63;;;18.20;53.10;;;;;;5166520;27;45398;-63
2023/12/10 00:39:25;;;;;;;0.47;0.47;;;18.20;53.20;;;;;;5168614;27;45511;-61
2023/12/10 00:41:51;;;;;;;0.85;0.30;;;18.20;53.10;;;;;;5168838;27;45280;-62
2023/12/10 00:44:20;;;;;;;1.55;0.47;;;18.20;53.10;;;;;;5160667;27;46396;-62
2023/12/10 00:46:46;;;;;;;3.65;0.47;;;18.10;53.10;;;;;;5147400;27;45474;-62
2023/12/10 00:49:13;;;;;;;1.65;0.52;;;18.10;53.20;;;;;;5149028;27;45583;-62
2023/12/10 00:51:40;;;;;;;0.43;0.20;;;18.10;53.70;;;;;;5147042;27;45459;-62
2023/12/10 00:54:07;;;;;;;0.50;0.50;;;18.10;53.10;;;;;;5149212;27;46398;-62
2023/12/10 00:56:34;;;;;;;2.53;0.50;;;18.10;53.10;;;;;;5148740;27;45468;-63
2023/12/10 00:59:01;;;;;;;1.60;0.60;;;18.10;53.10;;;;;;5147336;27;45293;-62
2023/12/10 01:01:29;;;;;;;0.68;0.40;;;18.10;53.10;;;;;;5150921;27;45572;-62
2023/12/10 01:03:56;;;;;;;0.90;0.43;;;18.10;53.10;;;;;;5153413;27;47132;-62
2023/12/10 01:06:23;;;;;;;1.05;0.40;;;18.10;53.20;;;;;;5168030;27;45265;-63
2023/12/10 01:08:50;;;;;;;2.13;0.63;;;18.00;53.20;;;;;;5167382;27;45296;-62
2023/12/10 01:11:17;;;;;;;0.63;0.50;;;18.00;53.20;;;;;;5154948;27;45501;-63
2023/12/10 01:13:51;;;;;;;0.40;0.30;;;18.00;53.20;;;;;;5157521;27;45587;-62
2023/12/10 01:16:18;;;;;;;0.50;0.40;;;18.00;53.20;;;;;;5147501;27;45295;-62
2023/12/10 01:18:47;;;;;;;1.48;0.73;;;18.00;53.20;;;;;;5147108;27;45433;-62
2023/12/10 01:21:14;;;;;;;0.65;0.43;;;17.90;53.20;;;;;;5148401;27;45301;-62
2023/12/10 01:23:41;;;;;;;0.75;0.50;;;17.90;53.20;;;;;;5146711;27;47358;-62
2023/12/10 01:26:10;;;;;;;2.20;0.93;;;17.90;53.20;;;;;;5163415;27;45522;-63
2023/12/10 01:28:36;;;;;;;2.50;1.00;;;17.90;53.10;;;;;;5168104;27;45360;-63
2023/12/10 01:31:03;;;;;;;0.70;0.60;;;17.90;53.20;;;;;;5167963;27;45305;-62
2023/12/10 01:33:30;;;;;;;1.63;0.47;;;17.90;53.20;;;;;;5155917;27;46655;-63
2023/12/10 01:35:58;;;;;;;1.17;0.47;;;17.90;53.20;;;;;;5149332;27;45453;-62
2023/12/10 01:38:25;;;;;;;2.55;0.90;;;17.80;53.20;;;;;;5152576;27;45308;-63
2023/12/10 01:40:52;;;;;;;1.45;0.60;;;17.80;53.10;;;;;;5147438;27;45386;-63
2023/12/10 01:43:19;;;;;;;2.25;0.80;;;17.80;52.90;;;;;;5147285;27;45251;-63
2023/12/10 01:45:50;;;;;;;2.03;0.65;;;17.80;53.10;;;;;;5146918;27;45336;-64
2023/12/10 01:48:18;;;;;;;0.47;0.43;;;17.80;53.10;;;;;;5147370;27;45323;-63
2023/12/10 01:50:45;;;;;;;1.05;0.60;;;17.80;53.10;;;;;;5147485;27;45328;-63
2023/12/10 01:53:13;;;;;;;0.80;0.70;;;17.80;53.10;;;;;;5147151;27;45504;-63
2023/12/10 01:55:40;;;;;;;1.52;0.60;;;17.70;53.10;;;;;;5147185;27;45343;-64
2023/12/10 01:58:07;;;;;;;3.05;1.02;;;17.70;53.10;;;;;;5147302;27;45456;-63
2023/12/10 02:00:33;;;;;;;1.88;0.73;;;17.70;53.10;;;;;;5147269;27;45373;-63
2023/12/10 02:03:02;;;;;;;0.75;0.75;;;17.70;53.10;;;;;;5158910;27;46723;-63
2023/12/10 02:05:32;;;;;;;2.03;0.80;;;17.70;53.20;;;;;;5171286;27;45318;-63
2023/12/10 02:07:59;;;;;;;2.75;0.63;;;17.70;53.20;;;;;;5171542;27;45331;-63
2023/12/10 02:10:27;;;;;;;2.33;0.70;;;17.60;53.10;;;;;;5171527;27;45305;-63
2023/12/10 02:12:54;;;;;;;1.17;0.50;;;17.60;53.10;;;;;;5171282;27;46368;-63
2023/12/10 02:15:21;;;;;;;1.80;0.73;;;17.60;53.20;;;;;;5171262;27;45305;-63
2023/12/10 02:17:49;;;;;;;2.28;0.65;;;17.60;53.10;;;;;;5171521;27;45370;-63
2023/12/10 02:20:16;;;;;;;2.00;0.55;;;17.60;53.20;;;;;;5171699;27;45340;-63
2023/12/10 02:22:47;;;;;;;1.35;0.60;;;17.50;53.10;;;;;;5171168;27;46380;-63
2023/12/10 02:25:14;;;;;;;2.45;0.70;;;17.60;53.20;;;;;;5171113;27;45621;-63
2023/12/10 02:27:42;;;;;;;2.22;0.82;;;17.50;53.10;;;;;;5171725;27;45358;-63
2023/12/10 02:30:10;;;;;;;1.83;0.73;;;17.50;53.20;;;;;;5171350;27;45474;-64
2023/12/10 02:32:37;;;;;;;3.10;0.82;;;17.50;53.20;;;;;;5171022;27;46656;-63
2023/12/10 02:35:04;;;;;;;3.80;1.02;;;17.50;53.20;;;;;;5171022;27;45320;-63
2023/12/10 02:37:31;;;;;;;0.60;0.45;;;17.50;53.10;;;;;;5170602;27;45315;-63
2023/12/10 02:39:58;;;;;;;2.58;0.90;;;17.50;53.20;;;;;;5171399;27;45336;-64
2023/12/10 02:42:25;;;;;;;3.22;0.70;;;17.50;53.10;;;;;;5170729;27;46701;-63
2023/12/10 02:44:53;;;;;;;1.27;0.65;;;17.40;53.10;;;;;;5170855;27;45389;-64
2023/12/10 02:47:20;;;;;;;2.08;0.80;;;17.40;53.10;;;;;;5170996;27;45332;-63
2023/12/10 02:49:47;;;;;;;3.25;1.20;;;17.40;53.10;;;;;;5171235;27;45439;-63
2023/12/10 02:52:14;;;;;;;2.30;0.90;;;17.40;53.10;;;;;;5170734;27;47305;-63
2023/12/10 02:54:40;;;;;;;2.35;0.90;;;17.40;53.20;;;;;;5170648;27;45673;-63
2023/12/10 02:57:07;;;;;;;1.73;0.75;;;17.40;53.20;;;;;;5170814;27;45369;-63
2023/12/10 02:59:34;;;;;;;1.27;0.60;;;17.40;53.20;;;;;;5171069;27;45286;-63
2023/12/10 03:02:02;;;;;;;1.02;0.68;;;17.40;53.20;;;;;;5170729;27;47415;-63
2023/12/10 03:04:29;;;;;;;2.08;0.90;;;17.40;53.20;;;;;;5170372;27;45336;-63
2023/12/10 03:06:56;;;;;;;2.25;0.70;;;17.30;53.20;;;;;;5170529;27;45314;-63
2023/12/10 03:09:23;;;;;;;2.63;0.80;;;17.30;53.20;;;;;;5170510;27;45443;-64
2023/12/10 03:11:49;;;;;;;3.72;0.93;;;17.30;53.20;;;;;;5170254;27;45256;-63
2023/12/10 03:14:17;;;;;;;1.02;0.63;;;17.30;53.20;;;;;;5169679;27;46065;-63
2023/12/10 03:16:43;;;;;;;1.27;0.93;;;17.20;53.20;;;;;;5170399;27;45321;-63
2023/12/10 03:19:12;;;;;;;1.60;0.70;;;17.20;53.10;;;;;;5170511;27;45350;-64
2023/12/10 03:21:38;;;;;;;1.65;0.75;;;17.20;53.20;;;;;;5170012;27;45284;-64
2023/12/10 03:24:05;;;;;;;1.73;0.65;;;17.20;53.20;;;;;;5170188;27;45328;-63
2023/12/10 03:26:32;;;;;;;3.17;0.85;;;17.20;53.10;;;;;;5167530;27;45245;-63
2023/12/10 03:28:59;;;;;;;2.88;0.90;;;17.20;53.10;;;;;;5170377;27;45453;-63
2023/12/10 03:31:26;;;;;;;2.08;0.80;;;17.20;53.10;;;;;;5170175;27;47332;-63
2023/12/10 03:33:52;;;;;;;1.67;0.82;;;17.20;53.20;;;;;;5170228;27;45300;-63
2023/12/10 03:36:21;;;;;;;4.38;0.82;;;17.20;53.20;;;;;;5169899;27;45314;-63
2023/12/10 03:38:48;;;;;;;2.15;1.00;;;17.20;53.20;;;;;;5170154;27;45396;-63
2023/12/10 03:41:15;;;;;;;2.72;0.85;;;17.10;53.20;;;;;;5169636;27;46338;-63
2023/12/10 03:43:42;;;;;;;1.40;0.70;;;17.10;53.20;;;;;;5170018;27;45395;-63
2023/12/10 03:46:09;;;;;;;3.58;0.93;;;17.10;53.80;;;;;;5169928;27;45289;-63
2023/12/10 03:48:35;;;;;;;2.42;1.00;;;17.10;53.10;;;;;;5170228;27;45266;-63
2023/12/10 03:51:02;;;;;;;2.97;1.08;;;17.10;53.10;;;;;;5169763;27;46368;-63
2023/12/10 03:53:30;;;;;;;2.50;1.00;;;17.10;53.20;;;;;;5169768;27;45409;-63
2023/12/10 03:55:57;;;;;;;3.58;1.00;;;17.10;53.20;;;;;;5169638;27;45321;-62
2023/12/10 03:58:24;;;;;;;1.95;0.95;;;17.00;53.00;;;;;;5170138;27;45316;-63
2023/12/10 04:00:51;;;;;;;1.67;0.82;;;17.00;53.10;;;;;;5169427;27;45547;-63
2023/12/10 04:03:17;;;;;;;3.92;1.13;;;17.00;53.10;;;;;;5169488;27;45255;-63
2023/12/10 04:05:44;;;;;;;2.65;1.00;;;17.00;53.20;;;;;;5169544;27;45479;-63
2023/12/10 04:08:11;;;;;;;3.05;0.98;;;17.00;53.20;;;;;;5169688;27;45405;-63
2023/12/10 04:10:39;;;;;;;3.28;0.90;;;17.00;53.20;;;;;;5169355;27;45528;-64
2023/12/10 04:13:07;;;;;;;2.55;1.13;;;17.10;53.00;;;;;;5169475;27;45553;-63
2023/12/10 04:15:34;;;;;;;1.83;0.70;;;17.10;52.80;;;;;;5169546;27;45427;-62
2023/12/10 04:18:01;;;;;;;2.63;1.02;;;17.20;52.70;;;;;;5169861;27;45502;-63
2023/12/10 04:20:28;;;;;;;2.70;1.15;;;17.30;52.40;;;;;;5169321;27;45313;-63
2023/12/10 04:22:55;;;;;;;3.45;1.42;;;17.40;52.20;;;;;;5169216;27;45307;-64
2023/12/10 04:25:21;;;;;;;3.08;1.10;;;17.50;52.00;;;;;;5169094;27;45351;-63
2023/12/10 04:27:49;;;;;;;1.10;0.70;;;17.50;51.70;;;;;;5168580;27;45265;-63
2023/12/10 04:30:19;;;;;;;3.70;1.05;;;17.70;51.40;;;;;;5168884;27;46702;-64
2023/12/10 04:32:46;;;;;;;2.00;0.77;;;17.80;51.20;;;;;;5169235;27;45327;-63
2023/12/10 04:35:13;;;;;;;3.38;0.90;;;17.80;50.90;;;;;;5169298;27;45321;-63
2023/12/10 04:37:40;;;;;;;4.07;1.25;;;17.90;50.70;;;;;;5168480;27;45403;-64
2023/12/10 04:40:10;;;;;;;2.22;0.88;;;18.00;50.60;;;;;;5168994;27;46400;-63
2023/12/10 04:42:37;;;;;;;2.10;0.90;;;18.00;50.40;;;;;;5168917;27;45181;-63
2023/12/10 04:45:07;;;;;;;1.25;0.73;;;18.00;50.20;;;;;;5169045;27;45368;-63
2023/12/10 04:47:34;;;;;;;2.33;0.90;;;18.10;50.80;;;;;;5169178;27;45577;-63
2023/12/10 04:50:02;;;;;;;3.63;0.95;;;18.20;50.10;;;;;;5168692;27;45520;-64
2023/12/10 04:52:29;;;;;;;2.42;0.80;;;18.20;49.90;;;;;;5169105;27;45296;-63
2023/12/10 04:54:57;;;;;;;1.15;0.70;;;18.20;49.80;;;;;;5168862;27;45314;-63
2023/12/10 04:57:24;;;;;;;4.47;1.02;;;18.30;49.70;;;;;;5169057;27;45292;-63
2023/12/10 04:59:51;;;;;;;2.00;0.70;;;18.30;49.60;;;;;;5168659;27;46364;-63
2023/12/10 05:02:19;;;;;;;3.10;0.90;;;18.30;49.60;;;;;;5168753;27;45344;-63
2023/12/10 05:04:46;;;;;;;1.38;0.60;;;18.40;50.10;;;;;;5168665;27;45330;-63
2023/12/10 05:07:13;;;;;;;2.22;0.65;;;18.40;49.40;;;;;;5168819;27;45332;-63
2023/12/10 05:09:40;;;;;;;2.08;0.90;;;18.40;49.40;;;;;;5168339;27;45289;-63
2023/12/10 05:12:07;;;;;;;3.13;0.70;;;18.40;49.30;;;;;;5168416;27;45257;-63
2023/12/10 05:14:33;;;;;;;1.02;0.70;;;18.40;49.20;;;;;;5168539;27;45369;-64
2023/12/10 05:17:00;;;;;;;2.50;1.02;;;18.40;49.10;;;;;;5168939;27;45503;-63
2023/12/10 05:19:28;;;;;;;1.33;0.70;;;18.40;49.10;;;;;;5168631;27;45324;-64
2023/12/10 05:21:55;;;;;;;2.97;0.95;;;18.40;49.00;;;;;;5168454;27;45271;-63
2023/12/10 05:24:22;;;;;;;2.45;0.68;;;18.40;49.00;;;;;;5168554;27;45270;-63
2023/12/10 05:26:49;;;;;;;2.47;0.90;;;18.50;48.90;;;;;;5168955;27;45318;-64
2023/12/10 05:29:16;;;;;;;3.25;0.98;;;18.50;48.80;;;;;;5168204;27;46384;-63
2023/12/10 05:31:43;;;;;;;3.95;1.05;;;18.50;48.80;;;;;;5168398;27;45327;-63
2023/12/10 05:34:09;;;;;;;2.50;0.77;;;18.50;48.80;;;;;;5168538;27;45328;-64
2023/12/10 05:36:38;;;;;;;1.30;0.77;;;18.50;48.70;;;;;;5168469;27;45406;-63
2023/12/10 05:39:04;;;;;;;1.30;0.63;;;18.50;48.70;;;;;;5171426;27;46386;-63
2023/12/10 05:41:31;;;;;;;2.40;0.82;;;18.50;48.70;;;;;;5172208;27;45397;-63
2023/12/10 05:43:58;;;;;;;4.65;1.13;;;18.60;48.70;;;;;;5172119;27;45445;-64
2023/12/10 05:46:25;;;;;;;1.88;1.10;;;18.60;48.60;;;;;;5172194;27;45378;-63
2023/12/10 05:48:52;;;;;;;3.03;0.80;;;18.60;48.60;;;;;;5171795;27;47405;-64
2023/12/10 05:51:18;;;;;;;3.05;1.08;;;18.60;48.60;;;;;;5171852;27;45573;-64
2023/12/10 05:53:46;;;;;;;2.13;1.00;;;18.60;48.50;;;;;;5171946;27;45465;-63
2023/12/10 05:56:12;;;;;;;2.55;0.93;;;18.60;48.40;;;;;;5171656;27;45648;-64
2023/12/10 05:58:39;;;;;;;1.38;0.88;;;18.60;48.50;;;;;;5171527;27;46375;-63
2023/12/10 06:01:06;;;;;;;2.22;0.85;;;18.60;48.50;;;;;;5171640;27;45412;-64
2023/12/10 06:03:33;;;;;;;1.58;0.93;;;18.60;48.40;;;;;;5171636;27;45266;-63
2023/12/10 06:06:00;;;;;;;0.73;0.73;;;18.60;48.30;;;;;;5169037;27;45374;-63
2023/12/10 06:08:27;;;;;;;2.40;0.80;;;18.60;48.90;;;;;;5171308;27;47273;-64
2023/12/10 06:10:55;;;;;;;2.08;0.93;;;18.60;48.30;;;;;;5171488;27;45263;-63
2023/12/10 06:13:22;;;;;;;4.20;0.88;;;18.60;48.20;;;;;;5171499;27;45312;-63
2023/12/10 06:15:49;;;;;;;1.35;0.75;;;18.60;48.20;;;;;;5171714;27;45452;-63
2023/12/10 06:18:16;;;;;;;1.73;0.77;;;18.60;48.20;;;;;;5171307;27;46392;-63
2023/12/10 06:20:43;;;;;;;0.63;0.63;;;18.60;48.20;;;;;;5171410;27;45410;-63
2023/12/10 06:23:10;;;;;;;1.67;0.63;;;18.60;48.10;;;;;;5171692;27;45346;-63
2023/12/10 06:25:37;;;;;;;2.45;1.00;;;18.60;48.10;;;;;;5168643;27;45312;-64
2023/12/10 06:28:05;;;;;;;1.13;0.90;;;18.60;48.70;;;;;;5171233;27;46413;-63
2023/12/10 06:30:32;;;;;;;4.10;0.90;;;18.60;48.10;;;;;;5171319;27;45259;-64
2023/12/10 06:32:59;;;;;;;3.08;1.10;;;18.60;48.10;;;;;;5171301;27;45242;-63
2023/12/10 06:35:25;;;;;;;1.73;0.70;;;18.60;48.10;;;;;;5171079;27;45312;-63
2023/12/10 06:37:57;;;;;;;2.03;0.80;;;18.60;48.00;;;;;;5170842;27;45467;-63
2023/12/10 06:40:24;;;;;;;3.63;0.90;;;18.60;48.00;;;;;;5171331;27;45262;-64
2023/12/10 06:42:51;;;;;;;3.13;0.82;;;18.70;48.00;;;;;;5171121;27;45311;-63
2023/12/10 06:45:20;;;;;;;1.08;0.85;;;18.70;47.90;;;;;;5171086;27;45443;-63
2023/12/10 06:47:46;;;;;;;3.35;0.90;;;18.70;47.90;;;;;;5170912;27;45251;-63
2023/12/10 06:50:13;;;;;;;2.53;0.80;;;18.80;47.90;;;;;;5169694;27;45311;-63
2023/12/10 06:52:40;;;;;;;2.65;0.80;;;18.80;47.90;;;;;;5171189;27;45354;-63
2023/12/10 06:55:08;;;;;;;1.38;0.73;;;18.80;47.80;;;;;;5171003;27;45393;-63
2023/12/10 06:57:35;;;;;;;2.97;1.00;;;18.80;47.70;;;;;;5170594;27;45356;-63
2023/12/10 07:00:03;;;;;;;2.47;0.90;;;18.80;47.70;;;;;;5170710;27;45442;-64
2023/12/10 07:02:32;;;;;;;2.67;0.90;;;18.90;47.70;;;;;;5171166;27;45300;-63
2023/12/10 07:04:59;;;;;;;0.77;0.77;;;18.90;47.60;;;;;;5170824;27;45376;-63
2023/12/10 07:07:26;;;;;;;3.08;0.88;;;18.90;47.60;;;;;;5170528;27;45413;-64
2023/12/10 07:09:52;;;;;;;0.93;0.60;;;18.90;47.60;;;;;;5170412;27;45384;-63
2023/12/10 07:12:19;;;;;;;2.17;0.98;;;18.90;47.50;;;;;;5170449;27;45409;-63
2023/12/10 07:14:46;;;;;;;1.85;0.90;;;18.90;47.50;;;;;;5170928;27;45460;-64
2023/12/10 07:17:14;;;;;;;2.40;0.95;;;18.90;47.50;;;;;;5170029;27;46718;-64
2023/12/10 07:19:42;;;;;;;2.33;0.73;;;19.00;47.50;;;;;;5170123;27;46117;-64
2023/12/10 07:22:09;;;;;;;1.60;0.73;;;19.00;47.50;;;;;;5170495;27;45454;-63
2023/12/10 07:24:36;;;;;;;2.53;0.93;;;19.00;47.50;;;;;;5170459;27;45478;-64
2023/12/10 07:27:03;;;;;;;3.55;0.82;;;19.00;47.40;;;;;;5170139;27;46348;-63
2023/12/10 07:29:30;;;;;;;3.30;0.93;;;19.00;47.40;;;;;;5169940;27;45478;-64
2023/12/10 07:31:57;;;;;;;1.10;0.73;;;19.00;47.40;;;;;;5170292;27;45215;-64
2023/12/10 07:34:24;;;;;;;1.70;0.98;;;19.00;47.40;;;;;;5170223;27;45291;-64
2023/12/10 07:36:52;;;;;;;1.65;0.60;;;19.00;47.40;;;;;;5169547;27;46681;-63
2023/12/10 07:39:19;;;;;;;1.52;0.90;;;19.00;47.30;;;;;;5169958;27;45291;-63
2023/12/10 07:41:46;;;;;;;1.00;0.70;;;19.10;47.40;;;;;;5170114;27;45402;-64
2023/12/10 07:44:12;;;;;;;3.17;0.82;;;19.10;47.40;;;;;;5169962;27;45349;-64
2023/12/10 07:46:39;;;;;;;2.20;0.80;;;19.10;47.40;;;;;;5169715;27;46454;-63
2023/12/10 07:49:06;;;;;;;1.92;0.90;;;19.10;47.90;;;;;;5169815;27;45245;-63
2023/12/10 07:51:33;;;;;;;1.63;0.70;;;19.10;47.40;;;;;;5169904;27;45136;-63
2023/12/10 07:54:01;;;;;;;3.80;0.75;;;19.10;47.40;;;;;;5169816;27;45368;-64
2023/12/10 07:56:28;;;;;;;2.42;1.10;;;19.10;47.40;;;;;;5169412;27;45383;-63
2023/12/10 07:58:55;;;;;;;2.47;0.70;;;19.10;47.30;;;;;;5169580;27;45304;-64
2023/12/10 08:01:22;;;;;;;1.92;0.70;;;19.10;47.30;;;;;;5169718;27;45174;-63
2023/12/10 08:03:49;;;;;;;1.15;0.68;;;19.10;47.40;;;;;;5169761;27;45307;-63
2023/12/10 08:06:15;;;;;;;1.85;0.90;;;19.10;47.30;;;;;;5169259;27;45326;-63
2023/12/10 08:08:42;;;;;;;2.53;0.93;;;19.10;47.30;;;;;;5169379;27;45338;-63
2023/12/10 08:11:10;;;;;;;1.65;0.90;;;19.10;47.30;;;;;;5169653;27;45334;-63
2023/12/10 08:13:37;;;;;;;2.30;0.80;;;19.10;47.80;;;;;;5169659;27;45355;-63
2023/12/10 08:16:05;;;;;;;1.15;0.85;;;19.10;47.30;;;;;;5168999;27;46277;-64
2023/12/10 08:18:31;;;;;;;2.20;0.90;;;19.10;47.30;;;;;;5169105;27;45435;-63
2023/12/10 08:21:01;;;;;;;2.35;0.90;;;19.10;47.20;;;;;;5169319;27;45286;-64
2023/12/10 08:23:27;;;;;;;2.00;0.88;;;19.10;47.10;;;;;;5169590;27;45268;-63
2023/12/10 08:25:54;;;;;;;1.65;1.05;;;19.10;47.10;;;;;;5168953;27;45271;-63
2023/12/10 08:28:22;;;;;;;4.82;1.48;;;19.10;47.00;;;;;;5169058;27;45375;-63
2023/12/10 08:30:49;;;;;;;1.70;0.90;;;19.10;47.10;;;;;;5169269;27;45398;-64
2023/12/10 08:33:16;;;;;;;2.45;0.77;;;19.10;47.00;;;;;;5166621;27;45250;-63
2023/12/10 08:35:43;;;;;;;2.65;0.70;;;19.10;47.00;;;;;;5168759;27;46375;-64
2023/12/10 08:38:09;;;;;;;2.25;1.00;;;19.20;47.00;;;;;;5168764;27;45450;-64
2023/12/10 08:40:37;;;;;;;3.55;1.25;;;19.20;46.90;;;;;;5169077;27;45309;-63
2023/12/10 08:43:04;;;;;;;2.80;0.75;;;19.20;46.90;;;;;;5169278;27;45502;-63
2023/12/10 08:45:33;;;;;;;1.60;0.70;;;19.20;46.90;;;;;;5168802;27;46702;-63
2023/12/10 08:47:59;;;;;;;1.15;0.75;;;19.20;46.90;;;;;;5168845;27;45340;-63
2023/12/10 08:50:26;;;;;;;5.22;1.10;;;19.20;46.90;;;;;;5168811;27;45411;-63
2023/12/10 08:52:53;;;;;;;2.05;0.80;;;19.20;46.80;;;;;;5169270;27;45506;-64
2023/12/10 08:55:20;;;;;;;1.73;0.75;;;19.20;46.80;;;;;;5165578;27;45542;-63
2023/12/10 08:57:47;;;;;;;3.03;1.00;;;19.30;46.80;;;;;;5158842;27;45249;-63
2023/12/10 09:00:15;;;;;;;2.50;1.08;;;19.20;46.80;;;;;;5151413;27;45319;-65
2023/12/10 09:02:43;;;;;;;3.15;0.85;;;19.30;46.80;;;;;;5151591;27;45377;-64
2023/12/10 09:05:10;;;;;;;4.25;1.25;;;19.30;46.80;;;;;;5162621;27;46415;-64
2023/12/10 09:07:36;;;;;;;2.25;1.13;;;19.30;46.80;;;;;;5148347;27;45313;-64
2023/12/10 09:10:04;;;;;;;2.17;0.80;;;19.30;46.70;;;;;;5151215;27;45494;-64
2023/12/10 09:12:30;;;;;;;2.83;0.90;;;19.30;46.70;;;;;;5150354;27;45443;-64
2023/12/10 09:14:57;;;;;;;2.28;1.05;;;19.30;46.60;;;;;;5153396;27;47315;-63
2023/12/10 09:17:24;;;;;;;4.63;0.80;;;19.30;46.50;;;;;;5171618;27;45435;-63
2023/12/10 09:19:52;;;;;;;1.45;1.15;;;19.40;46.60;;;;;;5159570;27;45375;-64
2023/12/10 09:22:19;;;;;;;4.05;1.10;;;19.40;46.80;;;;;;5168593;27;45502;-64
2023/12/10 09:24:46;;;;;;;4.82;0.90;;;19.50;46.50;;;;;;5161328;27;46380;-66
2023/12/10 09:27:12;;;;;;;1.23;0.90;;;19.50;46.50;;;;;;5151101;27;45412;-66
2023/12/10 09:29:41;;;;;;;2.33;1.13;;;19.60;46.70;;;;;;5162555;27;45550;-65
2023/12/10 09:32:08;;;;;;;2.53;1.10;;;19.60;46.70;;;;;;5157866;27;45467;-66
2023/12/10 09:34:34;;;;;;;3.13;1.15;;;19.60;46.70;;;;;;5151023;27;46376;-63
2023/12/10 09:37:08;;;;;;;2.75;0.95;;;19.60;46.80;;;;;;5150509;27;45318;-64
2023/12/10 09:39:35;;;;;;;3.40;1.20;;;19.70;46.60;;;;;;5151827;27;45282;-64
2023/12/10 09:42:02;;;;;;;3.75;0.95;;;19.70;46.60;;;;;;5151856;27;45582;-63
2023/12/10 09:44:29;;;;;;;2.85;0.82;;;19.70;46.70;;;;;;5153407;27;45454;-63
2023/12/10 09:46:56;;;;;;;5.25;1.23;;;19.80;46.50;;;;;;5171492;27;45346;-63
2023/12/10 09:49:22;;;;;;;1.70;1.00;;;19.90;46.40;;;;;;5171270;27;45242;-64
2023/12/10 09:51:49;;;;;;;5.50;1.00;;;19.90;46.40;;;;;;5171373;27;45389;-64
2023/12/10 09:54:20;;;;;;;5.82;1.45;;;19.90;46.30;;;;;;5157583;27;45441;-64
2023/12/10 09:56:48;;;;;;;13.52;5.20;;;19.90;46.40;;;;;;5150455;27;45378;-64
2023/12/10 09:59:15;;;;;;;23.08;7.95;;;19.80;46.50;;;;;;5155960;27;45402;-63
2023/12/10 10:01:48;;;;;;;30.08;10.20;;;19.80;46.50;;;;;;5169300;27;45418;-64
2023/12/10 10:04:15;;;;;;;18.25;7.05;;;19.80;46.60;;;;;;5167582;27;45439;-64
2023/12/10 10:06:42;;;;;;;19.15;7.00;;;19.90;46.40;;;;;;5154887;27;45312;-64
2023/12/10 10:09:09;;;;;;;32.40;9.98;;;20.00;46.20;;;;;;5160507;27;45337;-64
2023/12/10 10:11:37;;;;;;;27.95;8.77;;;20.10;46.10;;;;;;5169323;27;45403;-63
2023/12/10 10:14:04;;;;;;;21.85;7.63;;;20.20;46.00;;;;;;5169222;27;45768;-63
2023/12/10 10:16:31;;;;;;;26.20;8.27;;;20.20;45.90;;;;;;5169815;27;45436;-64
2023/12/10 10:18:59;;;;;;;27.52;8.95;;;20.20;45.80;;;;;;5151376;27;45541;-63
2023/12/10 10:21:26;;;;;;;25.60;9.50;;;20.20;45.90;;;;;;5159130;27;45495;-64
2023/12/10 10:23:52;;;;;;;19.00;6.70;;;20.20;46.00;;;;;;5163233;27;45471;-64
2023/12/10 10:26:19;;;;;;;22.02;7.43;;;20.10;45.90;;;;;;5169764;27;45275;-64
2023/12/10 10:28:47;;;;;;;18.55;7.78;;;20.00;46.10;;;;;;5170884;27;45247;-63
2023/12/10 10:31:14;;;;;;;26.27;8.35;;;20.00;46.40;;;;;;5155631;27;45403;-63
2023/12/10 10:33:41;;;;;;;19.30;7.47;;;19.90;46.50;;;;;;5168608;27;45472;-63
2023/12/10 10:36:09;;;;;;;23.38;6.93;;;19.90;46.60;;;;;;5154353;27;45661;-64
2023/12/10 10:38:35;;;;;;;26.48;7.38;;;19.90;46.70;;;;;;5149739;27;45345;-64
2023/12/10 10:41:02;;;;;;;22.20;7.53;;;19.90;46.90;;;;;;5150657;27;45336;-63
2023/12/10 10:43:29;;;;;;;26.63;7.50;;;19.90;46.90;;;;;;5149619;27;45483;-66
2023/12/10 10:45:57;;;;;;;19.65;6.47;;;19.90;47.10;;;;;;5150783;27;45490;-65
2023/12/10 10:48:25;;;;;;;21.60;6.97;;;20.10;46.90;;;;;;5157585;27;45422;-67
2023/12/10 10:50:52;;;;;;;19.60;6.55;;;20.20;46.80;;;;;;5170148;27;45400;-67
2023/12/10 10:53:19;;;;;;;14.32;6.13;;;20.40;46.50;;;;;;5162790;27;46337;-66
2023/12/10 10:55:48;;;;;;;17.98;5.68;;;20.50;46.40;;;;;;5170081;27;45448;-65
2023/12/10 10:58:26;;;;;;;18.58;6.13;;;20.50;46.10;;;;;;5170632;27;45304;-64
2023/12/10 11:00:53;;;;;;;19.05;5.68;;;20.60;46.60;;;;;;5170616;27;45581;-65
2023/12/10 11:03:21;;;;;;;19.45;5.45;;;20.60;46.00;;;;;;5170069;27;46328;-66
2023/12/10 11:05:48;;;;;;;18.73;5.40;;;20.60;45.90;;;;;;5170391;27;45319;-68
2023/12/10 11:08:14;;;;;;;16.08;5.47;;;20.60;45.80;;;;;;5170835;27;45272;-66
2023/12/10 11:10:43;;;;;;;16.38;4.20;;;20.70;46.00;;;;;;5170354;27;45338;-68
2023/12/10 11:13:10;;;;;;;9.38;4.03;;;20.70;45.70;;;;;;5150916;27;47414;-65
2023/12/10 11:15:37;;;;;;;9.77;3.83;;;20.70;45.40;;;;;;5168643;27;45444;-64
2023/12/10 11:18:04;;;;;;;8.13;4.22;;;20.70;45.50;;;;;;5170788;27;45242;-64
2023/12/10 11:20:33;;;;;;;12.85;4.18;;;20.70;45.80;;;;;;5169251;27;45565;-68
2023/12/10 11:23:01;;;;;;;13.07;4.03;;;20.70;46.00;;;;;;5164890;27;46464;-66
2023/12/10 11:25:28;;;;;;;8.85;3.45;;;20.80;45.70;;;;;;5167952;27;45338;-65
2023/12/10 11:27:56;;;;;;;15.02;3.38;;;20.80;44.70;;;;;;5166652;27;45428;-68
2023/12/10 11:30:23;;;;;;;11.52;3.28;;;20.80;45.30;;;;;;5161067;27;45803;-62
2023/12/10 11:32:50;;;;;;;15.88;3.70;;;20.90;45.50;;;;;;5165034;27;45420;-73
2023/12/10 11:35:17;;;;;;;10.20;3.35;;;21.10;45.60;;;;;;5169198;27;45390;-68
2023/12/10 11:37:45;;;;;;;15.18;3.80;;;21.20;45.30;;;;;;5163186;27;45328;-64
2023/12/10 11:40:12;;;;;;;11.32;3.33;;;21.10;45.30;;;;;;5149018;27;45562;-65
2023/12/10 11:42:39;;;;;;;9.95;3.65;;;21.10;46.00;;;;;;5155019;27;45448;-62
2023/12/10 11:45:07;;;;;;;12.23;2.85;;;21.00;46.10;;;;;;5148173;27;45373;-66
2023/12/10 11:47:34;;;;;;;9.13;3.47;;;21.00;46.30;;;;;;5149849;27;45267;-64
2023/12/10 11:50:03;;;;;;;13.07;3.45;;;20.90;46.70;;;;;;5148929;27;45376;-64
2023/12/10 11:52:31;;;;;;;9.73;3.42;;;20.90;46.80;;;;;;5150551;27;45483;-65
2023/12/10 11:55:00;;;;;;;13.27;3.45;;;20.90;46.90;;;;;;5148376;27;45294;-65
2023/12/10 11:57:26;;;;;;;6.25;3.20;;;20.90;47.00;;;;;;5162540;27;45287;-64
2023/12/10 11:59:53;;;;;;;11.32;3.50;;;20.80;47.10;;;;;;5164977;27;45503;-72
2023/12/10 12:02:20;;;;;;;6.75;2.75;;;20.80;47.40;;;;;;5167694;27;45382;-65
2023/12/10 12:04:47;;;;;;;13.25;3.45;;;20.90;47.30;;;;;;5165939;27;45482;-67
2023/12/10 12:07:24;;;;;;;10.07;2.88;;;21.00;47.20;;;;;;5158503;27;45380;-69
2023/12/10 12:09:51;;;;;;;11.70;3.00;;;20.90;46.30;;;;;;5155237;27;45457;-66
2023/12/10 12:12:21;;;;;;;8.48;2.30;;;20.80;46.50;;;;;;5160501;27;45434;-66
2023/12/10 12:14:48;;;;;;;14.70;2.72;;;20.80;47.00;;;;;;5159775;27;45405;-64
2023/12/10 12:17:16;;;;;;;10.00;2.88;;;20.70;46.90;;;;;;5168778;27;45358;-68
2023/12/10 12:19:43;;;;;;;8.85;2.45;;;20.70;45.90;;;;;;5166992;27;45455;-67
2023/12/10 12:22:10;;;;;;;13.13;3.20;;;20.80;46.50;;;;;;5150700;27;45379;-68
2023/12/10 12:24:38;;;;;;;6.15;1.92;;;20.90;46.30;;;;;;5162075;27;45313;-66
2023/12/10 12:27:06;;;;;;;9.27;2.55;;;21.10;46.10;;;;;;5167114;27;45293;-63
2023/12/10 12:29:34;;;;;;;10.20;2.70;;;21.20;46.00;;;;;;5162152;27;45396;-65
2023/12/10 12:32:02;;;;;;;7.72;2.00;;;21.30;46.00;;;;;;5149449;27;46357;-74
2023/12/10 12:34:28;;;;;;;5.55;2.22;;;21.30;46.10;;;;;;5149007;27;45269;-67
2023/12/10 12:36:55;;;;;;;5.07;2.08;;;21.30;44.70;;;;;;5161077;27;45406;-66
2023/12/10 12:39:22;;;;;;;6.50;1.98;;;21.30;44.00;;;;;;5152826;27;45273;-64
2023/12/10 12:41:50;;;;;;;4.88;1.90;;;21.30;43.40;;;;;;5155400;27;45314;-64
2023/12/10 12:44:16;;;;;;;8.40;2.05;;;21.30;43.20;;;;;;5156961;27;45353;-68